createdAt,value
2019-03-12T00:01:07.932Z,37.54
2019-03-12T00:03:37.466Z,37.56
2019-03-12T00:06:07.020Z,37.55
2019-03-12T00:08:36.584Z,37.57
2019-03-12T00:11:06.148Z,37.59
2019-03-12T00:13:35.672Z,37.61
2019-03-12T00:16:05.326Z,37.63
2019-03-12T00:18:34.883Z,37.63
2019-03-12T00:21:04.442Z,37.67
2019-03-12T00:23:33.976Z,37.69
2019-03-12T00:26:03.521Z,37.71
2019-03-12T00:28:33.070Z,37.73
2019-03-12T00:31:02.948Z,37.74
2019-03-12T00:33:32.509Z,37.75
2019-03-12T00:36:02.070Z,37.78
2019-03-12T00:38:31.600Z,37.79
2019-03-12T00:41:01.170Z,37.80
2019-03-12T00:43:30.722Z,37.79
2019-03-12T00:46:00.269Z,37.80
2019-03-12T00:48:29.830Z,37.82
2019-03-12T00:50:59.401Z,37.83
2019-03-12T00:53:28.952Z,37.86
2019-03-12T00:55:58.499Z,37.85
2019-03-12T00:58:28.060Z,37.84
2019-03-12T01:00:57.620Z,37.87
2019-03-12T01:03:28.494Z,37.89
2019-03-12T01:05:58.041Z,37.91
2019-03-12T01:08:27.630Z,37.92
2019-03-12T01:10:57.159Z,37.94
2019-03-12T01:13:26.708Z,37.94
2019-03-12T01:15:56.268Z,37.96
2019-03-12T01:18:25.829Z,37.96
2019-03-12T01:20:55.384Z,37.97
2019-03-12T01:23:24.960Z,37.97
2019-03-12T01:25:54.525Z,37.97
2019-03-12T01:28:24.069Z,38.00
2019-03-12T01:30:53.632Z,38.00
2019-03-12T01:33:23.551Z,38.04
2019-03-12T01:35:53.083Z,38.03
2019-03-12T01:38:22.640Z,38.07
2019-03-12T01:40:52.542Z,38.08
2019-03-12T01:43:22.328Z,38.12
2019-03-12T01:45:52.132Z,38.13
2019-03-12T01:48:21.651Z,38.12
2019-03-12T01:50:51.492Z,38.14
2019-03-12T01:53:21.327Z,38.16
2019-03-12T01:55:50.841Z,38.15
2019-03-12T01:58:20.371Z,38.17
2019-03-12T02:00:49.898Z,38.16
2019-03-12T02:03:19.449Z,38.20
2019-03-12T02:05:48.962Z,38.22
2019-03-12T02:08:18.677Z,38.22
2019-03-12T02:10:48.223Z,38.23
2019-03-12T02:13:17.735Z,38.26
2019-03-12T02:15:47.282Z,38.28
2019-03-12T02:18:16.822Z,38.29
2019-03-12T02:21:05.043Z,38.31
2019-03-12T02:23:52.859Z,38.33
2019-03-12T02:26:22.395Z,38.34
2019-03-12T02:28:51.933Z,38.38
2019-03-12T02:31:21.466Z,38.39
2019-03-12T02:33:51.338Z,38.39
2019-03-12T02:36:21.174Z,38.42
2019-03-12T02:38:50.703Z,38.42
2019-03-12T02:41:20.226Z,38.44
2019-03-12T02:43:50.079Z,38.46
2019-03-12T02:46:19.613Z,38.46
2019-03-12T02:48:49.171Z,38.49
2019-03-12T02:51:19.244Z,38.50
2019-03-12T02:53:48.767Z,38.50
2019-03-12T02:56:18.289Z,38.53
2019-03-12T02:58:48.160Z,38.52
2019-03-12T03:01:17.706Z,38.55
2019-03-12T03:04:05.489Z,38.57
2019-03-12T03:07:12.022Z,38.56
2019-03-12T03:09:41.560Z,38.60
2019-03-12T03:12:11.093Z,38.60
2019-03-12T03:14:41.385Z,38.60
2019-03-12T03:17:14.491Z,38.65
2019-03-12T03:19:44.100Z,38.66
2019-03-12T03:22:13.615Z,38.66
2019-03-12T03:24:43.430Z,38.69
2019-03-12T03:27:13.332Z,38.69
2019-03-12T03:29:42.860Z,38.70
2019-03-12T03:32:12.802Z,38.67
2019-03-12T03:34:42.524Z,38.69
2019-03-12T03:37:12.073Z,38.86
2019-03-12T03:39:41.778Z,38.89
2019-03-12T03:42:11.470Z,39.16
2019-03-12T03:44:41.007Z,39.44
2019-03-12T03:47:10.804Z,39.95
2019-03-12T03:49:40.367Z,40.64
2019-03-12T03:52:09.906Z,41.75
2019-03-12T03:54:39.438Z,42.46
2019-03-12T03:57:09.672Z,42.71
2019-03-12T03:59:39.306Z,43.06
2019-03-12T04:02:08.874Z,43.40
2019-03-12T04:04:38.406Z,45.24
2019-03-12T04:07:07.943Z,45.20
2019-03-12T04:09:37.507Z,44.11
2019-03-12T04:12:07.048Z,43.72
2019-03-12T04:14:36.890Z,43.46
2019-03-12T04:17:06.429Z,43.27
2019-03-12T04:19:35.895Z,43.01
2019-03-12T04:22:05.477Z,42.81
2019-03-12T04:24:35.059Z,42.63
2019-03-12T04:27:04.989Z,42.49
2019-03-12T04:29:34.570Z,42.32
2019-03-12T04:32:04.434Z,42.19
2019-03-12T04:34:39.490Z,42.07
2019-03-12T04:37:09.060Z,41.98
2019-03-12T04:39:38.618Z,41.93
2019-03-12T04:42:08.179Z,41.83
2019-03-12T04:44:37.734Z,41.78
2019-03-12T04:47:07.279Z,41.72
2019-03-12T04:49:36.818Z,41.66
2019-03-12T04:52:06.378Z,41.62
2019-03-12T04:54:35.926Z,41.59
2019-03-12T04:57:05.472Z,41.55
2019-03-12T04:59:35.010Z,41.50
2019-03-12T05:02:04.544Z,41.45
2019-03-12T05:04:34.109Z,41.40
2019-03-12T05:07:03.652Z,41.35
2019-03-12T05:09:33.207Z,41.33
2019-03-12T05:12:02.750Z,41.30
2019-03-12T05:14:33.196Z,41.26
2019-03-12T05:17:05.921Z,41.24
2019-03-12T05:19:36.235Z,41.23
2019-03-12T05:22:24.956Z,41.23
2019-03-12T05:25:12.736Z,41.21
2019-03-12T05:27:42.638Z,41.30
2019-03-12T05:30:14.765Z,41.34
2019-03-12T05:32:44.644Z,41.32
2019-03-12T05:35:14.189Z,41.43
2019-03-12T05:37:43.739Z,43.18
2019-03-12T05:40:30.996Z,43.09
2019-03-12T05:43:00.545Z,43.31
2019-03-12T05:45:30.495Z,43.50
2019-03-12T05:48:00.078Z,43.76
2019-03-12T05:50:29.603Z,43.91
2019-03-12T05:53:10.906Z,44.22
2019-03-12T05:55:40.454Z,44.25
2019-03-12T05:58:10.157Z,44.18
2019-03-12T06:00:39.692Z,44.09
2019-03-12T06:03:27.353Z,43.94
2019-03-12T06:06:15.257Z,43.87
2019-03-12T06:08:44.813Z,43.75
2019-03-12T06:11:14.691Z,43.69
2019-03-12T06:13:44.226Z,43.56
2019-03-12T06:16:13.770Z,43.51
2019-03-12T06:18:43.311Z,43.43
2019-03-12T06:21:12.838Z,43.35
2019-03-12T06:23:42.395Z,43.28
2019-03-12T06:26:12.289Z,43.22
2019-03-12T06:28:42.093Z,43.14
2019-03-12T06:31:25.282Z,43.07
2019-03-12T06:34:01.387Z,43.01
2019-03-12T06:36:48.579Z,42.95
2019-03-12T06:39:28.145Z,42.91
2019-03-12T06:42:02.983Z,42.88
2019-03-12T06:44:41.087Z,42.82
2019-03-12T06:47:21.247Z,42.77
2019-03-12T06:49:56.198Z,42.72
2019-03-12T06:52:47.555Z,42.70
2019-03-12T06:55:54.282Z,42.69
2019-03-12T06:58:41.920Z,42.62
2019-03-12T07:01:30.188Z,42.58
2019-03-12T07:04:05.704Z,42.56
2019-03-12T07:06:56.890Z,42.58
2019-03-12T07:09:44.279Z,42.53
2019-03-12T07:12:31.567Z,42.50
2019-03-12T07:15:32.081Z,42.50
2019-03-12T07:18:10.625Z,42.47
2019-03-12T07:20:57.882Z,42.46
2019-03-12T07:23:42.639Z,42.46
2019-03-12T07:26:29.613Z,42.45
2019-03-12T07:29:24.166Z,42.36
2019-03-12T07:32:13.011Z,42.32
2019-03-12T07:35:04.146Z,42.26
2019-03-12T07:37:58.212Z,42.21
2019-03-12T07:40:47.136Z,42.13
2019-03-12T07:43:37.513Z,42.09
2019-03-12T07:46:29.030Z,42.07
2019-03-12T07:49:17.551Z,42.03
2019-03-12T07:52:18.105Z,41.95
2019-03-12T07:55:13.223Z,41.90
2019-03-12T07:57:52.672Z,41.86
2019-03-12T08:00:39.565Z,41.81
2019-03-12T08:03:26.836Z,41.75
2019-03-12T08:06:09.965Z,41.72
2019-03-12T08:08:46.091Z,41.66
2019-03-12T08:11:23.101Z,41.59
2019-03-12T08:14:01.794Z,41.50
2019-03-12T08:16:56.153Z,41.41
2019-03-12T08:19:43.665Z,41.31
2019-03-12T08:22:30.782Z,41.21
2019-03-12T08:25:10.990Z,41.10
2019-03-12T08:27:52.481Z,41.01
2019-03-12T08:30:33.442Z,40.92
2019-03-12T08:33:21.984Z,40.81
2019-03-12T08:36:28.918Z,40.70
2019-03-12T08:39:02.600Z,40.61
2019-03-12T08:41:46.530Z,40.50
2019-03-12T08:44:37.409Z,40.46
2019-03-12T08:47:22.768Z,40.36
2019-03-12T08:50:01.777Z,40.29
2019-03-12T08:52:56.551Z,40.25
2019-03-12T08:55:43.077Z,40.18
2019-03-12T08:58:19.717Z,40.11
2019-03-12T09:01:02.125Z,40.07
2019-03-12T09:03:40.633Z,39.99
2019-03-12T09:06:19.463Z,39.95
2019-03-12T09:08:58.804Z,39.89
2019-03-12T09:11:39.976Z,39.87
2019-03-12T09:14:25.412Z,39.80
2019-03-12T09:17:06.206Z,39.73
2019-03-12T09:19:45.558Z,39.68
2019-03-12T09:22:37.527Z,39.66
2019-03-12T09:25:16.226Z,39.64
2019-03-12T09:28:09.612Z,39.59
2019-03-12T09:31:07.457Z,39.55
2019-03-12T09:34:11.221Z,39.51
2019-03-12T09:36:57.161Z,39.47
2019-03-12T09:39:36.338Z,39.44
2019-03-12T09:42:26.062Z,39.41
2019-03-12T09:45:11.882Z,39.38
2019-03-12T09:47:54.315Z,39.34
2019-03-12T09:50:41.756Z,39.31
2019-03-12T09:53:26.368Z,39.29
2019-03-12T09:56:15.193Z,39.24
2019-03-12T09:59:06.959Z,39.25
2019-03-12T10:01:45.836Z,39.20
2019-03-12T10:04:46.247Z,39.14
2019-03-12T10:07:33.785Z,39.14
2019-03-12T10:10:27.232Z,39.08
2019-03-12T10:13:04.904Z,39.04
2019-03-12T10:16:00.814Z,39.04
2019-03-12T10:18:44.885Z,38.98
2019-03-12T10:21:32.093Z,38.99
2019-03-12T10:24:28.980Z,38.95
2019-03-12T10:27:11.546Z,38.94
2019-03-12T10:29:47.004Z,38.90
2019-03-12T10:32:38.717Z,38.87
2019-03-12T10:35:21.039Z,38.83
2019-03-12T10:37:57.176Z,38.77
2019-03-12T10:41:01.066Z,38.74
2019-03-12T10:43:41.781Z,38.75
2019-03-12T10:46:23.043Z,38.72
2019-03-12T10:48:52.610Z,38.69
2019-03-12T10:51:40.215Z,38.66
2019-03-12T10:54:09.800Z,38.62
2019-03-12T10:56:39.277Z,38.60
2019-03-12T10:59:09.140Z,38.55
2019-03-12T11:01:38.703Z,38.55
2019-03-12T11:04:08.256Z,38.52
2019-03-12T11:06:37.781Z,38.48
2019-03-12T11:09:07.569Z,38.46
2019-03-12T11:11:37.385Z,38.42
2019-03-12T11:14:07.327Z,38.41
2019-03-12T11:16:36.932Z,38.37
2019-03-12T11:19:06.499Z,38.34
2019-03-12T11:21:36.468Z,38.31
2019-03-12T11:24:06.050Z,38.28
2019-03-12T11:26:35.619Z,38.24
2019-03-12T11:29:05.204Z,38.24
2019-03-12T11:31:34.827Z,38.21
2019-03-12T11:34:04.480Z,38.20
2019-03-12T11:36:34.101Z,38.20
2019-03-12T11:39:04.801Z,38.20
2019-03-12T11:41:34.723Z,38.17
2019-03-12T11:44:04.284Z,38.17
2019-03-12T11:46:43.528Z,38.17
2019-03-12T11:49:05.234Z,38.16
2019-03-12T11:51:35.415Z,38.14
2019-03-12T11:54:04.986Z,38.11
2019-03-12T11:56:34.540Z,38.10
2019-03-12T11:59:04.268Z,38.11
2019-03-12T12:01:33.816Z,38.08
2019-03-12T12:04:03.663Z,38.07
2019-03-12T12:06:33.213Z,38.05
2019-03-12T12:09:03.136Z,38.05
2019-03-12T12:11:32.703Z,38.01
2019-03-12T12:14:02.603Z,38.02
2019-03-12T12:16:32.162Z,37.99
2019-03-12T12:19:01.703Z,37.96
2019-03-12T12:21:31.636Z,37.93
2019-03-12T12:24:01.489Z,37.91
2019-03-12T12:26:31.037Z,37.90
2019-03-12T12:29:00.588Z,37.87
2019-03-12T12:31:30.444Z,37.87
2019-03-12T12:33:59.987Z,37.84
2019-03-12T12:36:29.549Z,37.83
2019-03-12T12:38:59.106Z,37.80
2019-03-12T12:41:28.666Z,37.78
2019-03-12T12:43:58.215Z,37.80
2019-03-12T12:46:28.080Z,37.79
2019-03-12T12:48:57.656Z,37.75
2019-03-12T12:51:27.442Z,37.73
2019-03-12T12:53:56.974Z,37.71
2019-03-12T12:56:26.571Z,37.70
2019-03-12T12:58:56.480Z,37.66
2019-03-12T13:01:26.058Z,37.64
2019-03-12T13:03:55.699Z,37.60
2019-03-12T13:06:25.581Z,37.64
2019-03-12T13:08:55.126Z,37.61
2019-03-12T13:11:24.708Z,37.59
2019-03-12T13:13:54.250Z,37.57
2019-03-12T13:16:25.472Z,37.57
2019-03-12T13:18:55.184Z,37.54
2019-03-12T13:21:24.753Z,37.58
2019-03-12T13:23:54.302Z,37.52
2019-03-12T13:26:23.890Z,37.53
2019-03-12T13:28:53.782Z,37.50
2019-03-12T13:31:23.348Z,37.48
2019-03-12T13:33:52.944Z,37.46
2019-03-12T13:36:22.592Z,37.43
2019-03-12T13:38:52.475Z,37.41
2019-03-12T13:41:22.398Z,37.39
2019-03-12T13:43:52.331Z,37.37
2019-03-12T13:46:22.207Z,37.35
2019-03-12T13:48:51.844Z,37.35
2019-03-12T13:51:21.708Z,37.34
2019-03-12T13:53:51.254Z,37.30
2019-03-12T13:56:20.817Z,37.29
2019-03-12T13:58:50.348Z,37.27
2019-03-12T14:01:19.935Z,37.27
2019-03-12T14:03:50.194Z,37.24
2019-03-12T14:06:19.729Z,37.20
2019-03-12T14:08:49.599Z,37.18
2019-03-12T14:11:19.169Z,37.13
2019-03-12T14:13:48.743Z,37.10
2019-03-12T14:16:18.301Z,37.11
2019-03-12T14:18:48.648Z,37.09
2019-03-12T14:21:18.533Z,37.06
2019-03-12T14:23:52.695Z,37.04
2019-03-12T14:26:22.273Z,36.99
2019-03-12T14:28:52.775Z,36.94
2019-03-12T14:31:22.502Z,36.97
2019-03-12T14:33:51.964Z,36.93
2019-03-12T14:36:21.540Z,36.91
2019-03-12T14:38:51.077Z,36.89
2019-03-12T14:41:38.383Z,36.84
2019-03-12T14:44:10.346Z,36.81
2019-03-12T14:46:40.009Z,36.84
2019-03-12T14:49:09.548Z,36.81
2019-03-12T14:52:02.814Z,36.81
2019-03-12T14:54:32.365Z,36.80
2019-03-12T14:57:01.921Z,36.82
2019-03-12T14:59:31.501Z,36.78
2019-03-12T15:02:01.128Z,36.79
2019-03-12T15:04:30.684Z,36.76
2019-03-12T15:07:00.511Z,36.75
2019-03-12T15:09:30.093Z,36.76
2019-03-12T15:11:59.638Z,36.75
2019-03-12T15:14:29.178Z,36.77
2019-03-12T15:16:59.089Z,36.75
2019-03-12T15:19:28.721Z,36.69
2019-03-12T15:21:58.316Z,36.61
2019-03-12T15:24:27.913Z,36.69
2019-03-12T15:26:57.794Z,36.67
2019-03-12T15:29:27.333Z,36.67
2019-03-12T15:32:03.984Z,36.71
2019-03-12T15:34:28.322Z,36.70
2019-03-12T15:36:57.856Z,36.71
2019-03-12T15:39:27.403Z,36.69
2019-03-12T15:42:14.709Z,36.71
2019-03-12T15:44:44.522Z,36.72
2019-03-12T15:47:14.107Z,36.77
2019-03-12T15:49:43.663Z,36.81
2019-03-12T15:52:13.228Z,36.87
2019-03-12T15:54:42.901Z,37.02
2019-03-12T15:57:12.471Z,37.15
2019-03-12T15:59:42.115Z,37.29
2019-03-12T16:02:11.720Z,37.45
2019-03-12T16:04:41.261Z,37.63
2019-03-12T16:07:10.836Z,37.78
2019-03-12T16:09:40.404Z,37.95
2019-03-12T16:12:09.975Z,38.07
2019-03-12T16:14:39.524Z,38.22
2019-03-12T16:17:09.113Z,38.37
2019-03-12T16:19:39.051Z,38.54
2019-03-12T16:22:08.694Z,38.65
2019-03-12T16:24:38.234Z,38.84
2019-03-12T16:27:25.937Z,39.00
2019-03-12T16:29:55.781Z,39.12
2019-03-12T16:32:25.335Z,39.24
2019-03-12T16:34:54.894Z,39.38
2019-03-12T16:37:26.308Z,39.45
2019-03-12T16:39:55.852Z,39.58
2019-03-12T16:42:34.630Z,39.66
2019-03-12T16:44:56.728Z,40.09
2019-03-12T16:47:26.646Z,40.13
2019-03-12T16:49:56.202Z,40.23
2019-03-12T16:52:25.742Z,40.27
2019-03-12T16:54:55.282Z,40.34
2019-03-12T16:57:25.158Z,40.40
2019-03-12T16:59:55.001Z,40.46
2019-03-12T17:02:24.569Z,40.50
2019-03-12T17:04:54.401Z,40.53
2019-03-12T17:07:23.957Z,40.58
2019-03-12T17:09:53.512Z,40.60
2019-03-12T17:12:23.050Z,40.60
2019-03-12T17:14:53.018Z,40.67
2019-03-12T17:17:22.553Z,40.68
2019-03-12T17:19:52.428Z,40.70
2019-03-12T17:22:22.284Z,40.73
2019-03-12T17:24:51.835Z,40.75
2019-03-12T17:27:21.426Z,40.76
2019-03-12T17:29:50.976Z,40.76
2019-03-12T17:32:20.516Z,40.77
2019-03-12T17:34:50.101Z,40.81
2019-03-12T17:37:19.665Z,40.77
2019-03-12T17:39:49.235Z,40.81
2019-03-12T17:42:18.782Z,40.83
2019-03-12T17:44:48.325Z,40.88
2019-03-12T17:47:18.338Z,41.00
2019-03-12T17:49:47.883Z,41.10
2019-03-12T17:52:17.496Z,41.19
2019-03-12T17:54:47.344Z,41.40
2019-03-12T17:57:16.920Z,41.33
2019-03-12T17:59:46.811Z,41.31
2019-03-12T18:02:16.358Z,41.28
2019-03-12T18:04:45.942Z,41.44
2019-03-12T18:07:15.478Z,41.56
2019-03-12T18:09:45.026Z,41.55
2019-03-12T18:12:14.586Z,41.51
2019-03-12T18:14:44.143Z,41.51
2019-03-12T18:17:13.693Z,41.49
2019-03-12T18:19:43.239Z,41.46
2019-03-12T18:22:12.832Z,41.46
2019-03-12T18:24:42.667Z,41.42
2019-03-12T18:27:12.196Z,41.40
2019-03-12T18:29:41.772Z,41.40
2019-03-12T18:32:11.306Z,41.38
2019-03-12T18:34:40.853Z,41.34
2019-03-12T18:37:10.725Z,41.31
2019-03-12T18:39:40.266Z,41.24
2019-03-12T18:42:09.993Z,41.18
2019-03-12T18:44:39.665Z,41.08
2019-03-12T18:47:09.154Z,40.98
2019-03-12T18:49:38.701Z,40.87
2019-03-12T18:52:08.254Z,40.78
2019-03-12T18:54:37.808Z,40.70
2019-03-12T18:57:07.676Z,40.68
2019-03-12T18:59:37.522Z,40.64
2019-03-12T19:02:07.075Z,40.64
2019-03-12T19:04:36.620Z,40.61
2019-03-12T19:07:06.362Z,40.54
2019-03-12T19:09:35.920Z,40.52
2019-03-12T19:12:05.752Z,40.51
2019-03-12T19:14:35.559Z,40.52
2019-03-12T19:17:05.447Z,40.65
2019-03-12T19:19:35.005Z,41.19
2019-03-12T19:22:04.552Z,41.72
2019-03-12T19:24:34.105Z,42.08
2019-03-12T19:27:04.328Z,42.12
2019-03-12T19:29:34.241Z,42.25
2019-03-12T19:32:16.870Z,42.28
2019-03-12T19:34:46.748Z,42.28
2019-03-12T19:37:16.391Z,42.35
2019-03-12T19:39:45.950Z,42.44
2019-03-12T19:42:15.499Z,42.49
2019-03-12T19:44:45.065Z,42.51
2019-03-12T19:47:14.983Z,42.64
2019-03-12T19:49:44.536Z,42.75
2019-03-12T19:52:14.081Z,42.86
2019-03-12T19:54:45.372Z,42.94
2019-03-12T19:57:15.496Z,43.10
2019-03-12T19:59:45.074Z,43.20
2019-03-12T20:02:16.387Z,43.28
2019-03-12T20:04:47.479Z,43.40
2019-03-12T20:07:17.184Z,43.49
2019-03-12T20:10:12.279Z,43.58
2019-03-12T20:13:20.645Z,43.68
2019-03-12T20:16:36.848Z,43.74
2019-03-12T20:19:43.106Z,43.83
2019-03-12T20:23:05.115Z,43.86
2019-03-12T20:26:02.906Z,44.04
2019-03-12T20:29:23.054Z,44.13
2019-03-12T20:32:17.938Z,44.19
2019-03-12T20:35:39.435Z,44.33
2019-03-12T20:38:41.478Z,44.37
2019-03-12T20:41:50.987Z,44.50
2019-03-12T20:44:50.801Z,44.60
2019-03-12T20:47:41.573Z,44.62
2019-03-12T20:51:04.294Z,44.75
2019-03-12T20:54:10.084Z,44.79
2019-03-12T20:57:11.224Z,44.84
2019-03-12T21:00:26.722Z,44.88
2019-03-12T21:03:49.891Z,44.97
2019-03-12T21:07:02.631Z,45.00
2019-03-12T21:10:09.418Z,44.99
2019-03-12T21:13:15.113Z,45.04
2019-03-12T21:16:33.496Z,45.05
2019-03-12T21:19:50.416Z,45.06
2019-03-12T21:22:52.762Z,45.09
2019-03-12T21:26:11.723Z,45.06
2019-03-12T21:28:56.971Z,45.12
2019-03-12T21:31:26.570Z,45.14
2019-03-12T21:33:56.147Z,45.12
2019-03-12T21:36:25.984Z,45.14
2019-03-12T21:38:55.559Z,45.12
2019-03-12T21:41:25.114Z,45.10
2019-03-12T21:43:54.680Z,45.09
2019-03-12T21:46:24.832Z,45.10
2019-03-12T21:48:54.670Z,45.04
2019-03-12T21:51:24.568Z,45.03
2019-03-12T21:53:54.123Z,44.98
2019-03-12T21:56:24.003Z,44.99
2019-03-12T21:58:53.496Z,44.98
2019-03-12T22:01:23.053Z,44.96
2019-03-12T22:03:52.848Z,44.95
2019-03-12T22:06:22.400Z,44.96
2019-03-12T22:08:51.948Z,44.88
2019-03-12T22:11:21.489Z,44.83
2019-03-12T22:13:51.030Z,44.78
2019-03-12T22:16:20.873Z,44.67
2019-03-12T22:18:51.912Z,44.59
2019-03-12T22:21:27.077Z,44.51
2019-03-12T22:23:58.289Z,44.43
2019-03-12T22:26:27.860Z,44.34
2019-03-12T22:28:57.731Z,44.19
2019-03-12T22:31:27.273Z,44.15
2019-03-12T22:33:57.092Z,44.08
2019-03-12T22:36:26.641Z,44.01
2019-03-12T22:38:56.559Z,43.95
2019-03-12T22:41:26.362Z,43.91
2019-03-12T22:43:55.929Z,43.83
2019-03-12T22:46:25.498Z,43.79
2019-03-12T22:48:55.033Z,43.76
2019-03-12T22:51:24.578Z,43.71
2019-03-12T22:53:54.130Z,43.68
2019-03-12T22:56:23.687Z,43.60
2019-03-12T22:58:53.226Z,43.55
2019-03-12T23:01:22.761Z,43.50
2019-03-12T23:03:52.330Z,43.46
2019-03-12T23:06:21.870Z,43.43
2019-03-12T23:08:51.430Z,43.39
2019-03-12T23:11:20.967Z,43.35
2019-03-12T23:13:50.510Z,43.34
2019-03-12T23:16:20.071Z,43.32
2019-03-12T23:18:49.614Z,43.28
2019-03-12T23:21:19.183Z,43.27
2019-03-12T23:23:48.729Z,43.24
2019-03-12T23:26:18.291Z,43.23
2019-03-12T23:28:47.833Z,43.20
2019-03-12T23:31:17.393Z,43.17
2019-03-12T23:33:46.955Z,43.15
2019-03-12T23:36:16.523Z,43.15
2019-03-12T23:38:46.077Z,43.15
2019-03-12T23:41:15.609Z,43.15
2019-03-12T23:43:45.142Z,43.11
2019-03-12T23:46:15.066Z,43.12
2019-03-12T23:48:44.609Z,43.10
2019-03-12T23:51:14.180Z,43.08
2019-03-12T23:53:43.734Z,43.08
2019-03-12T23:56:13.272Z,43.07
2019-03-12T23:58:42.839Z,43.05
